sensor_id;sensor_type;location;lat;lon;timestamp;P1;P2;P0
64229;PMS5003;50547;49.498;0.092;2023-07-13T00:02:14;7;7;
64229;PMS5003;50547;49.498;0.092;2023-07-13T00:04:43;7;7;
64229;PMS5003;50547;49.498;0.092;2023-07-13T00:07:13;7;7;
64229;PMS5003;50547;49.498;0.092;2023-07-13T00:09:42;8;8;
64229;PMS5003;50547;49.498;0.092;2023-07-13T00:12:21;6;6;
64229;PMS5003;50547;49.498;0.092;2023-07-13T00:14:52;7;7;
64229;PMS5003;50547;49.498;0.092;2023-07-13T00:17:21;7;7;
64229;PMS5003;50547;49.498;0.092;2023-07-13T00:19:50;6;6;
64229;PMS5003;50547;49.498;0.092;2023-07-13T00:22:19;7;7;
64229;PMS5003;50547;49.498;0.092;2023-07-13T00:24:49;7;7;
64229;PMS5003;50547;49.498;0.092;2023-07-13T00:27:18;7;7;
64229;PMS5003;50547;49.498;0.092;2023-07-13T00:29:47;7;7;
64229;PMS5003;50547;49.498;0.092;2023-07-13T00:32:16;7;7;
64229;PMS5003;50547;49.498;0.092;2023-07-13T00:34:46;7;7;
64229;PMS5003;50547;49.498;0.092;2023-07-13T00:37:15;7;7;
64229;PMS5003;50547;49.498;0.092;2023-07-13T00:39:44;7;7;
64229;PMS5003;50547;49.498;0.092;2023-07-13T00:42:13;7;7;
64229;PMS5003;50547;49.498;0.092;2023-07-13T00:44:59;7;7;
64229;PMS5003;50547;49.498;0.092;2023-07-13T00:47:30;7;7;
64229;PMS5003;50547;49.498;0.092;2023-07-13T00:49:59;8;8;
64229;PMS5003;50547;49.498;0.092;2023-07-13T00:52:28;8;8;
64229;PMS5003;50547;49.498;0.092;2023-07-13T00:54:58;7;7;
64229;PMS5003;50547;49.498;0.092;2023-07-13T00:57:27;7;7;
64229;PMS5003;50547;49.498;0.092;2023-07-13T00:59:57;7;7;
64229;PMS5003;50547;49.498;0.092;2023-07-13T01:02:28;7;7;
64229;PMS5003;50547;49.498;0.092;2023-07-13T01:04:58;7;7;
64229;PMS5003;50547;49.498;0.092;2023-07-13T01:07:27;5;5;
64229;PMS5003;50547;49.498;0.092;2023-07-13T01:09:56;7;7;
64229;PMS5003;50547;49.498;0.092;2023-07-13T01:12:25;6;6;
64229;PMS5003;50547;49.498;0.092;2023-07-13T01:14:56;7;7;
64229;PMS5003;50547;49.498;0.092;2023-07-13T01:17:26;7;7;
64229;PMS5003;50547;49.498;0.092;2023-07-13T01:19:56;6;6;
64229;PMS5003;50547;49.498;0.092;2023-07-13T01:22:26;7;7;
64229;PMS5003;50547;49.498;0.092;2023-07-13T01:24:55;5;5;
64229;PMS5003;50547;49.498;0.092;2023-07-13T01:27:24;6;6;
64229;PMS5003;50547;49.498;0.092;2023-07-13T01:29:55;7;7;
64229;PMS5003;50547;49.498;0.092;2023-07-13T01:32:24;8;8;
64229;PMS5003;50547;49.498;0.092;2023-07-13T01:34:53;7;7;
64229;PMS5003;50547;49.498;0.092;2023-07-13T01:37:23;7;7;
64229;PMS5003;50547;49.498;0.092;2023-07-13T01:39:53;7;7;
64229;PMS5003;50547;49.498;0.092;2023-07-13T01:42:22;7;7;
64229;PMS5003;50547;49.498;0.092;2023-07-13T01:44:51;7;7;
64229;PMS5003;50547;49.498;0.092;2023-07-13T01:47:20;7;7;
64229;PMS5003;50547;49.498;0.092;2023-07-13T01:49:50;7;7;
64229;PMS5003;50547;49.498;0.092;2023-07-13T01:52:20;7;7;
64229;PMS5003;50547;49.498;0.092;2023-07-13T01:54:49;7;7;
64229;PMS5003;50547;49.498;0.092;2023-07-13T01:57:18;7;7;
64229;PMS5003;50547;49.498;0.092;2023-07-13T01:59:48;7;7;
64229;PMS5003;50547;49.498;0.092;2023-07-13T02:02:17;7;7;
64229;PMS5003;50547;49.498;0.092;2023-07-13T02:04:46;7;7;
64229;PMS5003;50547;49.498;0.092;2023-07-13T02:07:16;7;7;
64229;PMS5003;50547;49.498;0.092;2023-07-13T02:09:45;8;8;
64229;PMS5003;50547;49.498;0.092;2023-07-13T02:12:15;7;7;
64229;PMS5003;50547;49.498;0.092;2023-07-13T02:14:44;7;7;
64229;PMS5003;50547;49.498;0.092;2023-07-13T02:17:13;8;8;
64229;PMS5003;50547;49.498;0.092;2023-07-13T02:19:42;7;7;
64229;PMS5003;50547;49.498;0.092;2023-07-13T02:22:12;7;7;
64229;PMS5003;50547;49.498;0.092;2023-07-13T02:24:41;8;8;
64229;PMS5003;50547;49.498;0.092;2023-07-13T02:27:10;8;8;
64229;PMS5003;50547;49.498;0.092;2023-07-13T02:29:39;8;8;
64229;PMS5003;50547;49.498;0.092;2023-07-13T02:32:08;9;9;
64229;PMS5003;50547;49.498;0.092;2023-07-13T02:34:37;7;7;
64229;PMS5003;50547;49.498;0.092;2023-07-13T02:37:07;7;7;
64229;PMS5003;50547;49.498;0.092;2023-07-13T02:39:36;7;7;
64229;PMS5003;50547;49.498;0.092;2023-07-13T02:42:06;10;10;
64229;PMS5003;50547;49.498;0.092;2023-07-13T02:44:35;7;7;
64229;PMS5003;50547;49.498;0.092;2023-07-13T02:47:04;7;7;
64229;PMS5003;50547;49.498;0.092;2023-07-13T02:49:33;7;7;
64229;PMS5003;50547;49.498;0.092;2023-07-13T02:52:03;8;8;
64229;PMS5003;50547;49.498;0.092;2023-07-13T02:54:33;7;7;
64229;PMS5003;50547;49.498;0.092;2023-07-13T02:57:02;7;7;
64229;PMS5003;50547;49.498;0.092;2023-07-13T02:59:32;7;7;
64229;PMS5003;50547;49.498;0.092;2023-07-13T03:02:01;7;7;
64229;PMS5003;50547;49.498;0.092;2023-07-13T03:04:31;7;7;
64229;PMS5003;50547;49.498;0.092;2023-07-13T03:07:00;7;7;
64229;PMS5003;50547;49.498;0.092;2023-07-13T03:09:30;7;7;
64229;PMS5003;50547;49.498;0.092;2023-07-13T03:11:59;6;6;
64229;PMS5003;50547;49.498;0.092;2023-07-13T03:14:29;7;7;
64229;PMS5003;50547;49.498;0.092;2023-07-13T03:16:58;7;7;
64229;PMS5003;50547;49.498;0.092;2023-07-13T03:19:28;8;8;
64229;PMS5003;50547;49.498;0.092;2023-07-13T03:21:57;8;8;
64229;PMS5003;50547;49.498;0.092;2023-07-13T03:24:26;7;7;
64229;PMS5003;50547;49.498;0.092;2023-07-13T03:26:55;7;7;
64229;PMS5003;50547;49.498;0.092;2023-07-13T03:29:24;7;7;
64229;PMS5003;50547;49.498;0.092;2023-07-13T03:31:53;7;7;
64229;PMS5003;50547;49.498;0.092;2023-07-13T03:34:22;7;7;
64229;PMS5003;50547;49.498;0.092;2023-07-13T03:36:53;7;7;
64229;PMS5003;50547;49.498;0.092;2023-07-13T03:39:23;7;7;
64229;PMS5003;50547;49.498;0.092;2023-07-13T03:41:52;9;9;
64229;PMS5003;50547;49.498;0.092;2023-07-13T03:44:21;8;8;
64229;PMS5003;50547;49.498;0.092;2023-07-13T03:46:50;8;8;
64229;PMS5003;50547;49.498;0.092;2023-07-13T03:49:20;8;8;
64229;PMS5003;50547;49.498;0.092;2023-07-13T03:51:49;9;9;
64229;PMS5003;50547;49.498;0.092;2023-07-13T03:54:18;7;7;
64229;PMS5003;50547;49.498;0.092;2023-07-13T03:56:47;7;7;
64229;PMS5003;50547;49.498;0.092;2023-07-13T03:59:17;7;7;
64229;PMS5003;50547;49.498;0.092;2023-07-13T04:01:46;7;7;
64229;PMS5003;50547;49.498;0.092;2023-07-13T04:04:15;7;7;
64229;PMS5003;50547;49.498;0.092;2023-07-13T04:06:44;7;7;
64229;PMS5003;50547;49.498;0.092;2023-07-13T04:09:13;7;7;
64229;PMS5003;50547;49.498;0.092;2023-07-13T04:11:43;8;8;
64229;PMS5003;50547;49.498;0.092;2023-07-13T04:14:12;8;8;
64229;PMS5003;50547;49.498;0.092;2023-07-13T04:16:41;9;9;
64229;PMS5003;50547;49.498;0.092;2023-07-13T04:19:10;8;8;
64229;PMS5003;50547;49.498;0.092;2023-07-13T04:21:39;8;8;
64229;PMS5003;50547;49.498;0.092;2023-07-13T04:24:08;7;7;
64229;PMS5003;50547;49.498;0.092;2023-07-13T04:26:37;8;8;
64229;PMS5003;50547;49.498;0.092;2023-07-13T04:29:07;8;8;
64229;PMS5003;50547;49.498;0.092;2023-07-13T04:31:36;8;8;
64229;PMS5003;50547;49.498;0.092;2023-07-13T04:34:05;10;10;
64229;PMS5003;50547;49.498;0.092;2023-07-13T04:36:34;10;10;
64229;PMS5003;50547;49.498;0.092;2023-07-13T04:39:04;10;10;
64229;PMS5003;50547;49.498;0.092;2023-07-13T04:41:33;9;9;
64229;PMS5003;50547;49.498;0.092;2023-07-13T04:44:02;8;8;
64229;PMS5003;50547;49.498;0.092;2023-07-13T04:46:31;7;7;
64229;PMS5003;50547;49.498;0.092;2023-07-13T04:49:00;8;8;
64229;PMS5003;50547;49.498;0.092;2023-07-13T04:51:29;8;8;
64229;PMS5003;50547;49.498;0.092;2023-07-13T04:53:59;9;9;
64229;PMS5003;50547;49.498;0.092;2023-07-13T04:56:28;7;7;
64229;PMS5003;50547;49.498;0.092;2023-07-13T04:58:57;8;8;
64229;PMS5003;50547;49.498;0.092;2023-07-13T05:01:26;8;8;
64229;PMS5003;50547;49.498;0.092;2023-07-13T05:03:55;8;8;
64229;PMS5003;50547;49.498;0.092;2023-07-13T05:06:24;8;8;
64229;PMS5003;50547;49.498;0.092;2023-07-13T05:08:53;8;8;
64229;PMS5003;50547;49.498;0.092;2023-07-13T05:11:23;9;9;
64229;PMS5003;50547;49.498;0.092;2023-07-13T05:13:52;10;10;
64229;PMS5003;50547;49.498;0.092;2023-07-13T05:16:27;8;8;
64229;PMS5003;50547;49.498;0.092;2023-07-13T05:18:56;9;9;
64229;PMS5003;50547;49.498;0.092;2023-07-13T05:21:25;8;8;
64229;PMS5003;50547;49.498;0.092;2023-07-13T05:23:54;7;7;
64229;PMS5003;50547;49.498;0.092;2023-07-13T05:26:23;7;7;
64229;PMS5003;50547;49.498;0.092;2023-07-13T05:28:52;7;7;
64229;PMS5003;50547;49.498;0.092;2023-07-13T05:31:21;7;7;
64229;PMS5003;50547;49.498;0.092;2023-07-13T05:33:51;7;7;
64229;PMS5003;50547;49.498;0.092;2023-07-13T05:36:20;7;7;
64229;PMS5003;50547;49.498;0.092;2023-07-13T05:38:49;7;7;
64229;PMS5003;50547;49.498;0.092;2023-07-13T05:41:18;8;8;
64229;PMS5003;50547;49.498;0.092;2023-07-13T05:43:47;7;7;
64229;PMS5003;50547;49.498;0.092;2023-07-13T05:46:16;8;8;
64229;PMS5003;50547;49.498;0.092;2023-07-13T05:48:45;7;7;
64229;PMS5003;50547;49.498;0.092;2023-07-13T05:51:15;7;7;
64229;PMS5003;50547;49.498;0.092;2023-07-13T05:53:44;7;7;
64229;PMS5003;50547;49.498;0.092;2023-07-13T05:56:13;7;7;
64229;PMS5003;50547;49.498;0.092;2023-07-13T05:58:42;7;7;
64229;PMS5003;50547;49.498;0.092;2023-07-13T06:01:12;7;7;
64229;PMS5003;50547;49.498;0.092;2023-07-13T06:03:42;7;7;
64229;PMS5003;50547;49.498;0.092;2023-07-13T06:06:11;7;7;
64229;PMS5003;50547;49.498;0.092;2023-07-13T06:08:41;8;8;
64229;PMS5003;50547;49.498;0.092;2023-07-13T06:11:12;7;7;
64229;PMS5003;50547;49.498;0.092;2023-07-13T06:13:43;7;7;
64229;PMS5003;50547;49.498;0.092;2023-07-13T06:16:13;7;7;
64229;PMS5003;50547;49.498;0.092;2023-07-13T06:18:43;6;6;
64229;PMS5003;50547;49.498;0.092;2023-07-13T06:21:14;7;7;
64229;PMS5003;50547;49.498;0.092;2023-07-13T06:23:45;6;6;
64229;PMS5003;50547;49.498;0.092;2023-07-13T06:26:16;7;7;
64229;PMS5003;50547;49.498;0.092;2023-07-13T06:28:46;7;7;
64229;PMS5003;50547;49.498;0.092;2023-07-13T06:31:15;6;6;
64229;PMS5003;50547;49.498;0.092;2023-07-13T06:33:45;5;5;
64229;PMS5003;50547;49.498;0.092;2023-07-13T06:36:14;6;6;
64229;PMS5003;50547;49.498;0.092;2023-07-13T06:38:43;6;6;
64229;PMS5003;50547;49.498;0.092;2023-07-13T06:41:12;7;7;
64229;PMS5003;50547;49.498;0.092;2023-07-13T06:43:41;7;7;
64229;PMS5003;50547;49.498;0.092;2023-07-13T06:46:11;7;7;
64229;PMS5003;50547;49.498;0.092;2023-07-13T06:48:40;7;7;
64229;PMS5003;50547;49.498;0.092;2023-07-13T06:51:09;7;7;
64229;PMS5003;50547;49.498;0.092;2023-07-13T06:53:38;7;7;
64229;PMS5003;50547;49.498;0.092;2023-07-13T06:56:07;8;8;
64229;PMS5003;50547;49.498;0.092;2023-07-13T06:58:36;6;6;
64229;PMS5003;50547;49.498;0.092;2023-07-13T07:01:06;5;5;
64229;PMS5003;50547;49.498;0.092;2023-07-13T07:03:35;7;7;
64229;PMS5003;50547;49.498;0.092;2023-07-13T07:06:08;7;7;
64229;PMS5003;50547;49.498;0.092;2023-07-13T07:08:42;7;7;
64229;PMS5003;50547;49.498;0.092;2023-07-13T07:11:13;6;6;
64229;PMS5003;50547;49.498;0.092;2023-07-13T07:13:45;7;7;
64229;PMS5003;50547;49.498;0.092;2023-07-13T07:16:14;7;7;
64229;PMS5003;50547;49.498;0.092;2023-07-13T07:18:43;5;5;
64229;PMS5003;50547;49.498;0.092;2023-07-13T07:21:13;7;7;
64229;PMS5003;50547;49.498;0.092;2023-07-13T07:23:42;5;5;
64229;PMS5003;50547;49.498;0.092;2023-07-13T07:26:12;6;6;
64229;PMS5003;50547;49.498;0.092;2023-07-13T07:28:41;6;6;
64229;PMS5003;50547;49.498;0.092;2023-07-13T07:31:10;6;6;
64229;PMS5003;50547;49.498;0.092;2023-07-13T07:33:40;7;7;
64229;PMS5003;50547;49.498;0.092;2023-07-13T07:36:09;7;7;
64229;PMS5003;50547;49.498;0.092;2023-07-13T07:38:38;6;6;
64229;PMS5003;50547;49.498;0.092;2023-07-13T07:41:08;5;5;
64229;PMS5003;50547;49.498;0.092;2023-07-13T07:43:37;6;6;
64229;PMS5003;50547;49.498;0.092;2023-07-13T07:46:06;5;5;
64229;PMS5003;50547;49.498;0.092;2023-07-13T07:48:35;7;7;
64229;PMS5003;50547;49.498;0.092;2023-07-13T07:51:04;5;5;
64229;PMS5003;50547;49.498;0.092;2023-07-13T07:53:33;7;7;
64229;PMS5003;50547;49.498;0.092;2023-07-13T07:56:02;6;6;
64229;PMS5003;50547;49.498;0.092;2023-07-13T07:58:30;5;5;
64229;PMS5003;50547;49.498;0.092;2023-07-13T08:01:03;6;6;
64229;PMS5003;50547;49.498;0.092;2023-07-13T08:03:33;6;6;
64229;PMS5003;50547;49.498;0.092;2023-07-13T08:06:02;5;5;
64229;PMS5003;50547;49.498;0.092;2023-07-13T08:08:32;5;5;
64229;PMS5003;50547;49.498;0.092;2023-07-13T08:11:02;4;4;
64229;PMS5003;50547;49.498;0.092;2023-07-13T08:13:33;5;5;
64229;PMS5003;50547;49.498;0.092;2023-07-13T08:16:04;5;5;
64229;PMS5003;50547;49.498;0.092;2023-07-13T08:18:33;6;6;
64229;PMS5003;50547;49.498;0.092;2023-07-13T08:21:03;6;6;
64229;PMS5003;50547;49.498;0.092;2023-07-13T08:23:33;5;5;
64229;PMS5003;50547;49.498;0.092;2023-07-13T08:26:02;5;5;
64229;PMS5003;50547;49.498;0.092;2023-07-13T08:28:33;5;5;
64229;PMS5003;50547;49.498;0.092;2023-07-13T08:31:02;5;5;
64229;PMS5003;50547;49.498;0.092;2023-07-13T08:33:33;5;5;
64229;PMS5003;50547;49.498;0.092;2023-07-13T08:36:04;6;6;
64229;PMS5003;50547;49.498;0.092;2023-07-13T08:38:33;4;4;
64229;PMS5003;50547;49.498;0.092;2023-07-13T08:41:09;4;4;
64229;PMS5003;50547;49.498;0.092;2023-07-13T08:43:41;5;5;
64229;PMS5003;50547;49.498;0.092;2023-07-13T08:46:15;5;5;
64229;PMS5003;50547;49.498;0.092;2023-07-13T08:48:48;5;5;
64229;PMS5003;50547;49.498;0.092;2023-07-13T08:51:28;5;5;
64229;PMS5003;50547;49.498;0.092;2023-07-13T08:54:05;5;5;
64229;PMS5003;50547;49.498;0.092;2023-07-13T08:56:41;4;4;
64229;PMS5003;50547;49.498;0.092;2023-07-13T08:59:14;4;4;
64229;PMS5003;50547;49.498;0.092;2023-07-13T09:01:47;4;4;
64229;PMS5003;50547;49.498;0.092;2023-07-13T09:04:27;4;4;
64229;PMS5003;50547;49.498;0.092;2023-07-13T09:07:03;4;4;
64229;PMS5003;50547;49.498;0.092;2023-07-13T09:09:38;4;4;
64229;PMS5003;50547;49.498;0.092;2023-07-13T09:12:17;4;4;
64229;PMS5003;50547;49.498;0.092;2023-07-13T09:14:55;3;3;
64229;PMS5003;50547;49.498;0.092;2023-07-13T09:17:31;4;4;
64229;PMS5003;50547;49.498;0.092;2023-07-13T09:20:14;4;4;
64229;PMS5003;50547;49.498;0.092;2023-07-13T09:22:52;4;4;
64229;PMS5003;50547;49.498;0.092;2023-07-13T09:25:29;4;4;
64229;PMS5003;50547;49.498;0.092;2023-07-13T09:28:02;4;4;
64229;PMS5003;50547;49.498;0.092;2023-07-13T09:30:40;6;6;
64229;PMS5003;50547;49.498;0.092;2023-07-13T09:33:18;4;4;
64229;PMS5003;50547;49.498;0.092;2023-07-13T09:35:47;5;5;
64229;PMS5003;50547;49.498;0.092;2023-07-13T09:38:18;4;4;
64229;PMS5003;50547;49.498;0.092;2023-07-13T09:40:58;4;4;
64229;PMS5003;50547;49.498;0.092;2023-07-13T09:43:33;4;4;
64229;PMS5003;50547;49.498;0.092;2023-07-13T09:46:02;4;4;
64229;PMS5003;50547;49.498;0.092;2023-07-13T09:48:35;4;4;
64229;PMS5003;50547;49.498;0.092;2023-07-13T09:51:09;4;4;
64229;PMS5003;50547;49.498;0.092;2023-07-13T09:53:48;4;4;
64229;PMS5003;50547;49.498;0.092;2023-07-13T09:56:25;3;3;
64229;PMS5003;50547;49.498;0.092;2023-07-13T09:58:56;4;4;
64229;PMS5003;50547;49.498;0.092;2023-07-13T10:01:35;4;4;
64229;PMS5003;50547;49.498;0.092;2023-07-13T10:04:10;4;4;
64229;PMS5003;50547;49.498;0.092;2023-07-13T10:06:40;3;3;
64229;PMS5003;50547;49.498;0.092;2023-07-13T10:09:10;3;3;
64229;PMS5003;50547;49.498;0.092;2023-07-13T10:11:43;3;3;
64229;PMS5003;50547;49.498;0.092;2023-07-13T10:14:14;3;3;
64229;PMS5003;50547;49.498;0.092;2023-07-13T10:16:46;3;3;
64229;PMS5003;50547;49.498;0.092;2023-07-13T10:19:17;3;3;
64229;PMS5003;50547;49.498;0.092;2023-07-13T10:21:50;7;7;
64229;PMS5003;50547;49.498;0.092;2023-07-13T10:24:24;4;4;
64229;PMS5003;50547;49.498;0.092;2023-07-13T10:26:57;4;4;
64229;PMS5003;50547;49.498;0.092;2023-07-13T10:29:34;4;4;
64229;PMS5003;50547;49.498;0.092;2023-07-13T10:32:08;4;4;
64229;PMS5003;50547;49.498;0.092;2023-07-13T10:34:38;4;4;
64229;PMS5003;50547;49.498;0.092;2023-07-13T10:37:11;5;5;
64229;PMS5003;50547;49.498;0.092;2023-07-13T10:39:47;5;5;
64229;PMS5003;50547;49.498;0.092;2023-07-13T10:42:23;8;8;
64229;PMS5003;50547;49.498;0.092;2023-07-13T10:44:56;7;7;
64229;PMS5003;50547;49.498;0.092;2023-07-13T10:47:25;7;7;
64229;PMS5003;50547;49.498;0.092;2023-07-13T10:49:57;7;7;
64229;PMS5003;50547;49.498;0.092;2023-07-13T10:52:40;6;6;
64229;PMS5003;50547;49.498;0.092;2023-07-13T10:55:54;13;13;
64229;PMS5003;50547;49.498;0.092;2023-07-13T10:58:32;10;10;
64229;PMS5003;50547;49.498;0.092;2023-07-13T11:01:04;11;11;
64229;PMS5003;50547;49.498;0.092;2023-07-13T11:03:47;7;7;
64229;PMS5003;50547;49.498;0.092;2023-07-13T11:06:29;7;7;
64229;PMS5003;50547;49.498;0.092;2023-07-13T11:09:17;8;8;
64229;PMS5003;50547;49.498;0.092;2023-07-13T11:11:58;7;7;
64229;PMS5003;50547;49.498;0.092;2023-07-13T11:14:30;5;5;
64229;PMS5003;50547;49.498;0.092;2023-07-13T11:17:24;5;5;
64229;PMS5003;50547;49.498;0.092;2023-07-13T11:20:19;6;6;
64229;PMS5003;50547;49.498;0.092;2023-07-13T11:22:51;7;7;
64229;PMS5003;50547;49.498;0.092;2023-07-13T11:25:36;6;6;
64229;PMS5003;50547;49.498;0.092;2023-07-13T11:28:13;5;5;
64229;PMS5003;50547;49.498;0.092;2023-07-13T11:30:46;4;4;
64229;PMS5003;50547;49.498;0.092;2023-07-13T11:33:18;4;4;
64229;PMS5003;50547;49.498;0.092;2023-07-13T11:35:50;5;5;
64229;PMS5003;50547;49.498;0.092;2023-07-13T11:38:28;4;4;
64229;PMS5003;50547;49.498;0.092;2023-07-13T11:41:13;5;5;
64229;PMS5003;50547;49.498;0.092;2023-07-13T11:43:44;4;4;
64229;PMS5003;50547;49.498;0.092;2023-07-13T11:46:14;4;4;
64229;PMS5003;50547;49.498;0.092;2023-07-13T11:48:45;4;4;
64229;PMS5003;50547;49.498;0.092;2023-07-13T11:51:19;4;4;
64229;PMS5003;50547;49.498;0.092;2023-07-13T11:53:50;4;4;
64229;PMS5003;50547;49.498;0.092;2023-07-13T11:56:22;4;4;
64229;PMS5003;50547;49.498;0.092;2023-07-13T11:58:53;4;4;
64229;PMS5003;50547;49.498;0.092;2023-07-13T12:01:26;4;4;
64229;PMS5003;50547;49.498;0.092;2023-07-13T12:03:54;4;4;
64229;PMS5003;50547;49.498;0.092;2023-07-13T12:06:25;4;4;
64229;PMS5003;50547;49.498;0.092;2023-07-13T12:08:57;5;5;
64229;PMS5003;50547;49.498;0.092;2023-07-13T12:11:28;4;4;
64229;PMS5003;50547;49.498;0.092;2023-07-13T12:13:57;4;4;
64229;PMS5003;50547;49.498;0.092;2023-07-13T12:16:28;4;4;
64229;PMS5003;50547;49.498;0.092;2023-07-13T12:18:59;4;4;
64229;PMS5003;50547;49.498;0.092;2023-07-13T12:21:28;4;4;
64229;PMS5003;50547;49.498;0.092;2023-07-13T12:24:00;4;4;
64229;PMS5003;50547;49.498;0.092;2023-07-13T12:26:31;5;5;
64229;PMS5003;50547;49.498;0.092;2023-07-13T12:29:01;4;4;
64229;PMS5003;50547;49.498;0.092;2023-07-13T12:31:35;4;4;
64229;PMS5003;50547;49.498;0.092;2023-07-13T12:34:09;4;4;
64229;PMS5003;50547;49.498;0.092;2023-07-13T12:36:41;4;4;
64229;PMS5003;50547;49.498;0.092;2023-07-13T12:39:17;5;5;
64229;PMS5003;50547;49.498;0.092;2023-07-13T12:41:49;4;4;
64229;PMS5003;50547;49.498;0.092;2023-07-13T12:44:21;4;4;
64229;PMS5003;50547;49.498;0.092;2023-07-13T12:46:57;5;5;
64229;PMS5003;50547;49.498;0.092;2023-07-13T12:49:29;4;4;
64229;PMS5003;50547;49.498;0.092;2023-07-13T12:52:00;5;5;
64229;PMS5003;50547;49.498;0.092;2023-07-13T12:54:31;4;4;
64229;PMS5003;50547;49.498;0.092;2023-07-13T12:57:00;4;4;
64229;PMS5003;50547;49.498;0.092;2023-07-13T12:59:29;5;5;
64229;PMS5003;50547;49.498;0.092;2023-07-13T13:02:00;4;4;
64229;PMS5003;50547;49.498;0.092;2023-07-13T13:04:29;4;4;
64229;PMS5003;50547;49.498;0.092;2023-07-13T13:07:00;4;4;
64229;PMS5003;50547;49.498;0.092;2023-07-13T13:09:32;4;4;
64229;PMS5003;50547;49.498;0.092;2023-07-13T13:12:01;4;4;
64229;PMS5003;50547;49.498;0.092;2023-07-13T13:14:31;4;4;
64229;PMS5003;50547;49.498;0.092;2023-07-13T13:17:00;4;4;
64229;PMS5003;50547;49.498;0.092;2023-07-13T13:19:28;4;4;
64229;PMS5003;50547;49.498;0.092;2023-07-13T13:21:55;5;5;
64229;PMS5003;50547;49.498;0.092;2023-07-13T13:24:26;4;4;
64229;PMS5003;50547;49.498;0.092;2023-07-13T13:26:56;4;4;
64229;PMS5003;50547;49.498;0.092;2023-07-13T13:29:22;4;4;
64229;PMS5003;50547;49.498;0.092;2023-07-13T13:31:53;4;4;
64229;PMS5003;50547;49.498;0.092;2023-07-13T13:34:24;4;4;
64229;PMS5003;50547;49.498;0.092;2023-07-13T13:36:54;4;4;
64229;PMS5003;50547;49.498;0.092;2023-07-13T13:39:24;4;4;
64229;PMS5003;50547;49.498;0.092;2023-07-13T13:41:58;4;4;
64229;PMS5003;50547;49.498;0.092;2023-07-13T13:44:27;4;4;
64229;PMS5003;50547;49.498;0.092;2023-07-13T13:46:56;4;4;
64229;PMS5003;50547;49.498;0.092;2023-07-13T13:49:26;4;4;
64229;PMS5003;50547;49.498;0.092;2023-07-13T13:51:56;4;4;
64229;PMS5003;50547;49.498;0.092;2023-07-13T13:54:26;7;7;
64229;PMS5003;50547;49.498;0.092;2023-07-13T13:56:55;5;5;
64229;PMS5003;50547;49.498;0.092;2023-07-13T13:59:24;5;5;
64229;PMS5003;50547;49.498;0.092;2023-07-13T14:01:51;6;6;
64229;PMS5003;50547;49.498;0.092;2023-07-13T14:04:21;6;6;
64229;PMS5003;50547;49.498;0.092;2023-07-13T14:06:51;6;6;
64229;PMS5003;50547;49.498;0.092;2023-07-13T14:09:30;6;6;
64229;PMS5003;50547;49.498;0.092;2023-07-13T14:11:59;7;7;
64229;PMS5003;50547;49.498;0.092;2023-07-13T14:14:28;7;7;
64229;PMS5003;50547;49.498;0.092;2023-07-13T14:16:58;6;6;
64229;PMS5003;50547;49.498;0.092;2023-07-13T14:19:27;7;7;
64229;PMS5003;50547;49.498;0.092;2023-07-13T14:21:56;7;7;
64229;PMS5003;50547;49.498;0.092;2023-07-13T14:24:26;6;6;
64229;PMS5003;50547;49.498;0.092;2023-07-13T14:26:55;5;5;
64229;PMS5003;50547;49.498;0.092;2023-07-13T14:29:24;7;7;
64229;PMS5003;50547;49.498;0.092;2023-07-13T14:31:53;6;6;
64229;PMS5003;50547;49.498;0.092;2023-07-13T14:34:22;6;6;
64229;PMS5003;50547;49.498;0.092;2023-07-13T14:36:52;6;6;
64229;PMS5003;50547;49.498;0.092;2023-07-13T14:39:20;6;6;
64229;PMS5003;50547;49.498;0.092;2023-07-13T14:41:52;5;5;
64229;PMS5003;50547;49.498;0.092;2023-07-13T14:44:24;6;6;
64229;PMS5003;50547;49.498;0.092;2023-07-13T14:46:54;5;5;
64229;PMS5003;50547;49.498;0.092;2023-07-13T14:49:27;5;5;
64229;PMS5003;50547;49.498;0.092;2023-07-13T14:52:09;5;5;
64229;PMS5003;50547;49.498;0.092;2023-07-13T14:54:41;6;6;
64229;PMS5003;50547;49.498;0.092;2023-07-13T14:57:10;6;6;
64229;PMS5003;50547;49.498;0.092;2023-07-13T14:59:40;5;5;
64229;PMS5003;50547;49.498;0.092;2023-07-13T15:02:13;6;6;
64229;PMS5003;50547;49.498;0.092;2023-07-13T15:04:45;4;4;
64229;PMS5003;50547;49.498;0.092;2023-07-13T15:07:14;4;4;
64229;PMS5003;50547;49.498;0.092;2023-07-13T15:09:44;6;6;
64229;PMS5003;50547;49.498;0.092;2023-07-13T15:12:13;4;4;
64229;PMS5003;50547;49.498;0.092;2023-07-13T15:14:42;5;5;
64229;PMS5003;50547;49.498;0.092;2023-07-13T15:17:17;5;5;
64229;PMS5003;50547;49.498;0.092;2023-07-13T15:19:55;5;5;
64229;PMS5003;50547;49.498;0.092;2023-07-13T15:22:24;5;5;
64229;PMS5003;50547;49.498;0.092;2023-07-13T15:24:50;6;6;
64229;PMS5003;50547;49.498;0.092;2023-07-13T15:27:19;5;5;
64229;PMS5003;50547;49.498;0.092;2023-07-13T15:29:48;6;6;
64229;PMS5003;50547;49.498;0.092;2023-07-13T15:32:17;5;5;
64229;PMS5003;50547;49.498;0.092;2023-07-13T15:34:47;5;5;
64229;PMS5003;50547;49.498;0.092;2023-07-13T15:37:16;6;6;
64229;PMS5003;50547;49.498;0.092;2023-07-13T15:39:45;7;7;
64229;PMS5003;50547;49.498;0.092;2023-07-13T15:42:15;7;7;
64229;PMS5003;50547;49.498;0.092;2023-07-13T15:44:45;7;7;
64229;PMS5003;50547;49.498;0.092;2023-07-13T15:47:15;6;6;
64229;PMS5003;50547;49.498;0.092;2023-07-13T15:49:45;6;6;
64229;PMS5003;50547;49.498;0.092;2023-07-13T15:52:17;5;5;
64229;PMS5003;50547;49.498;0.092;2023-07-13T15:54:48;6;6;
64229;PMS5003;50547;49.498;0.092;2023-07-13T15:57:17;5;5;
64229;PMS5003;50547;49.498;0.092;2023-07-13T15:59:46;6;6;
64229;PMS5003;50547;49.498;0.092;2023-07-13T16:02:17;7;7;
64229;PMS5003;50547;49.498;0.092;2023-07-13T16:04:48;7;7;
64229;PMS5003;50547;49.498;0.092;2023-07-13T16:07:17;5;5;
64229;PMS5003;50547;49.498;0.092;2023-07-13T16:09:46;7;7;
64229;PMS5003;50547;49.498;0.092;2023-07-13T16:12:15;5;5;
64229;PMS5003;50547;49.498;0.092;2023-07-13T16:14:44;7;7;
64229;PMS5003;50547;49.498;0.092;2023-07-13T16:17:15;6;6;
64229;PMS5003;50547;49.498;0.092;2023-07-13T16:19:44;7;7;
64229;PMS5003;50547;49.498;0.092;2023-07-13T16:22:14;6;6;
64229;PMS5003;50547;49.498;0.092;2023-07-13T16:24:45;7;7;
64229;PMS5003;50547;49.498;0.092;2023-07-13T16:27:14;6;6;
64229;PMS5003;50547;49.498;0.092;2023-07-13T16:29:43;6;6;
64229;PMS5003;50547;49.498;0.092;2023-07-13T16:32:13;7;7;
64229;PMS5003;50547;49.498;0.092;2023-07-13T16:34:43;7;7;
64229;PMS5003;50547;49.498;0.092;2023-07-13T16:37:14;7;7;
64229;PMS5003;50547;49.498;0.092;2023-07-13T16:39:41;7;7;
64229;PMS5003;50547;49.498;0.092;2023-07-13T16:42:14;6;6;
64229;PMS5003;50547;49.498;0.092;2023-07-13T16:44:43;6;6;
64229;PMS5003;50547;49.498;0.092;2023-07-13T16:47:13;6;6;
64229;PMS5003;50547;49.498;0.092;2023-07-13T16:49:45;6;6;
64229;PMS5003;50547;49.498;0.092;2023-07-13T16:52:16;7;7;
64229;PMS5003;50547;49.498;0.092;2023-07-13T16:54:47;7;7;
64229;PMS5003;50547;49.498;0.092;2023-07-13T16:57:19;7;7;
64229;PMS5003;50547;49.498;0.092;2023-07-13T16:59:50;7;7;
64229;PMS5003;50547;49.498;0.092;2023-07-13T17:02:37;7;7;
64229;PMS5003;50547;49.498;0.092;2023-07-13T17:05:08;7;7;
64229;PMS5003;50547;49.498;0.092;2023-07-13T17:07:39;7;7;
64229;PMS5003;50547;49.498;0.092;2023-07-13T17:10:15;6;6;
64229;PMS5003;50547;49.498;0.092;2023-07-13T17:12:46;6;6;
64229;PMS5003;50547;49.498;0.092;2023-07-13T17:15:16;6;6;
64229;PMS5003;50547;49.498;0.092;2023-07-13T17:17:45;5;5;